Time;durP1;ratioP1;P1;durP2;ratioP2;P2;SDS_P1;SDS_P2;PMS_P1;PMS_P2;Temp;Humidity;BMP_temperature;BMP_pressure;BME280_temperature;BME280_humidity;BME280_pressure;Samples;Min_cycle;Max_cycle;Signal;HPM_P1;HPM_P2
2022/12/19 00:01:15;;;;;;;12.00;2.42;;;;;;;12.89;100.00;102090.22;2095096;28;20424;-75
2022/12/19 00:02:37;;;;;;;7.95;2.22;;;;;;;12.90;100.00;102091.13;2091545;28;20044;-75
2022/12/19 00:04:01;;;;;;;11.70;2.83;;;;;;;12.94;100.00;102098.28;2089389;28;20048;-74
2022/12/19 00:05:23;;;;;;;6.60;2.28;;;;;;;12.97;100.00;102087.78;2085785;28;20591;-75
2022/12/19 00:06:46;;;;;;;6.82;2.40;;;;;;;12.99;100.00;102091.38;2098084;28;20538;-75
2022/12/19 00:08:14;;;;;;;8.32;3.00;;;;;;;13.02;100.00;102099.38;2095017;28;20097;-74
2022/12/19 00:09:37;;;;;;;8.90;2.63;;;;;;;13.05;100.00;102095.09;2091700;28;20048;-75
2022/12/19 00:11:00;;;;;;;9.52;3.00;;;;;;;13.07;100.00;102092.44;2094993;28;20090;-76
2022/12/19 00:12:25;;;;;;;8.85;2.90;;;;;;;13.09;100.00;102093.41;2091410;28;20070;-75
2022/12/19 00:13:48;;;;;;;9.93;3.47;;;;;;;13.09;100.00;102083.69;2094793;28;20055;-75
2022/12/19 00:15:10;;;;;;;9.50;3.17;;;;;;;13.10;100.00;102096.09;2092767;28;20052;-75
2022/12/19 00:16:33;;;;;;;7.32;2.80;;;;;;;13.12;100.00;102085.53;2097326;28;20076;-75
2022/12/19 00:17:54;;;;;;;6.85;3.03;;;;;;;13.17;100.00;102097.19;2091838;28;20102;-76
2022/12/19 00:19:17;;;;;;;9.70;2.78;;;;;;;13.20;100.00;102091.06;2101655;28;20037;-75
2022/12/19 00:20:38;;;;;;;6.82;2.38;;;;;;;13.25;100.00;102092.09;2101947;28;20085;-75
2022/12/19 00:22:01;;;;;;;7.80;2.92;;;;;;;13.28;100.00;102098.38;2100060;28;20046;-75
2022/12/19 00:23:23;;;;;;;11.70;4.70;;;;;;;13.37;100.00;102090.66;2101247;28;20538;-76
2022/12/19 00:24:46;;;;;;;8.10;3.65;;;;;;;13.50;100.00;102092.75;2109277;28;20040;-75
2022/12/19 00:26:09;;;;;;;8.65;2.97;;;;;;;13.67;100.00;102097.56;2088150;28;20456;-75
2022/12/19 00:27:35;;;;;;;8.45;2.83;;;;;;;13.80;100.00;102104.97;2093621;28;20577;-75
2022/12/19 00:28:58;;;;;;;7.82;2.70;;;;;;;13.87;100.00;102104.25;2097887;28;20063;-75
2022/12/19 00:30:21;;;;;;;7.88;2.80;;;;;;;13.94;100.00;102101.78;2102319;28;20139;-75
2022/12/19 00:31:42;;;;;;;6.95;2.63;;;;;;;14.02;100.00;102109.03;2093653;28;20044;-75
2022/12/19 00:33:05;;;;;;;8.30;3.35;;;;;;;14.05;100.00;102104.66;2090848;28;20052;-75
2022/12/19 00:34:27;;;;;;;10.30;3.17;;;;;;;14.13;100.00;102110.16;2096421;28;20078;-75
2022/12/19 00:35:48;;;;;;;8.20;3.50;;;;;;;14.19;100.00;102105.88;2085247;28;20053;-75
2022/12/19 00:37:11;;;;;;;11.85;3.92;;;;;;;14.27;100.00;102109.63;2099040;28;20488;-75
2022/12/19 00:38:34;;;;;;;7.00;3.05;;;;;;;14.35;100.00;102105.38;2088128;28;20075;-75
2022/12/19 00:39:57;;;;;;;7.43;3.15;;;;;;;14.43;100.00;102102.94;2104295;28;20043;-75
2022/12/19 00:41:20;;;;;;;10.48;3.25;;;;;;;14.51;100.00;102101.31;2095933;28;20044;-75
2022/12/19 00:42:43;;;;;;;5.15;2.67;;;;;;;14.56;100.00;102112.94;2099172;28;20051;-75
2022/12/19 00:44:06;;;;;;;6.40;2.33;;;;;;;14.60;100.00;102103.25;2101825;28;20052;-75
2022/12/19 00:45:29;;;;;;;7.68;2.80;;;;;;;14.62;100.00;102102.44;2095388;28;20156;-75
2022/12/19 00:46:52;;;;;;;4.95;2.47;;;;;;;14.62;100.00;102101.56;2087853;28;20147;-75
2022/12/19 00:48:18;;;;;;;8.43;2.97;;;;;;;14.59;100.00;102102.38;2093638;28;20143;-75
2022/12/19 00:49:40;;;;;;;8.30;2.83;;;;;;;14.60;100.00;102101.50;2087964;28;20635;-74
2022/12/19 00:51:05;;;;;;;9.60;3.45;;;;;;;14.66;100.00;102100.72;2083253;28;20052;-75
2022/12/19 00:52:26;;;;;;;12.75;4.90;;;;;;;14.75;100.00;102100.94;2094562;28;20051;-75
2022/12/19 00:53:51;;;;;;;12.93;4.03;;;;;;;14.85;100.00;102108.22;2093033;28;20040;-75
2022/12/19 00:55:13;;;;;;;9.75;3.80;;;;;;;14.94;100.00;102104.84;2091167;28;20099;-74
2022/12/19 00:56:36;;;;;;;10.73;3.85;;;;;;;14.98;100.00;102102.25;2091856;28;20052;-75
2022/12/19 00:57:57;;;;;;;10.25;3.60;;;;;;;14.98;100.00;102104.03;2090753;28;20044;-76
2022/12/19 00:59:20;;;;;;;7.72;3.05;;;;;;;14.96;100.00;102112.00;2093940;28;20991;-75
2022/12/19 01:00:44;;;;;;;6.70;2.72;;;;;;;14.96;100.00;102108.44;2098989;28;20040;-75
2022/12/19 01:02:06;;;;;;;12.07;3.38;;;;;;;14.97;100.00;102103.13;2091333;28;20396;-74
2022/12/19 01:03:30;;;;;;;9.63;3.65;;;;;;;15.00;100.00;102107.63;2085080;28;20060;-75
2022/12/19 01:04:52;;;;;;;6.00;3.22;;;;;;;15.03;100.00;102105.03;2098363;28;20106;-75
2022/12/19 01:06:14;;;;;;;10.65;3.75;;;;;;;15.04;100.00;102097.06;2090165;28;20049;-75
2022/12/19 01:07:36;;;;;;;11.88;5.05;;;;;;;15.07;100.00;102099.78;2092659;28;20037;-74
2022/12/19 01:09:00;;;;;;;12.63;8.23;;;;;;;15.12;100.00;102102.53;2095794;28;20040;-75
2022/12/19 01:10:21;;;;;;;10.52;3.95;;;;;;;15.16;100.00;102104.38;2101546;28;20048;-75
2022/12/19 01:13:24;;;;;;;12.52;6.05;;;;;;;15.27;100.00;102096.59;2093181;28;20505;-75
2022/12/19 01:14:46;;;;;;;9.57;5.50;;;;;;;15.32;100.00;102097.56;2091881;28;20800;-75
2022/12/19 01:16:11;;;;;;;12.15;5.60;;;;;;;15.36;100.00;102100.28;2101638;28;20092;-75
2022/12/19 01:17:33;;;;;;;15.02;6.13;;;;;;;15.41;100.00;102092.41;2088009;28;20060;-75
2022/12/19 01:18:56;;;;;;;12.90;5.97;;;;;;;15.46;100.00;102093.38;2095299;28;20047;-75
2022/12/19 01:20:21;;;;;;;12.65;5.13;;;;;;;15.50;100.00;102088.13;2100918;28;20055;-75
2022/12/19 01:21:42;;;;;;;15.68;5.93;;;;;;;15.50;100.00;102096.09;2090362;28;20412;-76
2022/12/19 01:23:05;;;;;;;10.85;6.55;;;;;;;15.51;100.00;102097.00;2093721;28;20048;-76
2022/12/19 01:24:28;;;;;;;11.00;6.03;;;;;;;15.47;100.00;102096.06;2084616;28;20071;-75
2022/12/19 01:25:53;;;;;;;9.15;5.68;;;;;;;15.42;100.00;102097.78;2102582;27;20059;-75
2022/12/19 01:27:14;;;;;;;8.00;3.80;;;;;;;15.35;100.00;102089.66;2098831;28;20036;-76
2022/12/19 01:28:37;;;;;;;9.63;4.82;;;;;;;15.30;100.00;102093.97;2093736;28;20523;-74
2022/12/19 01:29:58;;;;;;;12.25;5.07;;;;;;;15.28;100.00;102090.41;2092809;28;20476;-75
2022/12/19 01:31:21;;;;;;;11.13;5.10;;;;;;;15.25;100.00;102096.56;2095184;28;20052;-74
2022/12/19 01:32:42;;;;;;;8.80;4.72;;;;;;;15.25;100.00;102087.69;2092626;28;20044;-75
2022/12/19 01:34:04;;;;;;;9.85;6.30;;;;;;;15.24;100.00;102083.22;2096667;28;20044;-75
2022/12/19 01:35:27;;;;;;;11.48;5.63;;;;;;;15.23;100.00;102082.31;2095273;28;20029;-75
2022/12/19 01:36:49;;;;;;;14.43;6.22;;;;;;;15.19;100.00;102088.47;2093664;28;20075;-75
2022/12/19 01:38:14;;;;;;;9.27;4.97;;;;;;;15.18;100.00;102084.00;2092394;28;20036;-75
2022/12/19 01:39:37;;;;;;;10.77;6.00;;;;;;;15.14;100.00;102083.06;2092925;28;20059;-75
2022/12/19 01:40:59;;;;;;;13.13;6.72;;;;;;;15.10;100.00;102082.97;2103320;28;20048;-75
2022/12/19 01:42:22;;;;;;;12.60;6.70;;;;;;;15.07;100.00;102078.50;2097621;28;20551;-75
2022/12/19 01:43:59;;;;;;;15.07;7.95;;;;;;;15.03;100.00;102081.09;2103179;28;20060;-75
2022/12/19 01:45:26;;;;;;;10.35;6.05;;;;;;;14.99;100.00;102080.13;2101131;28;20074;-75
2022/12/19 01:46:51;;;;;;;13.07;7.47;;;;;;;14.93;100.00;102074.69;2104207;27;20131;-75
2022/12/19 01:48:17;;;;;;;14.25;7.97;;;;;;;14.91;100.00;102079.06;2092290;28;20053;-76
2022/12/19 01:49:40;;;;;;;16.40;8.75;;;;;;;14.89;100.00;102075.50;2095898;28;20507;-75
2022/12/19 01:51:05;;;;;;;16.75;9.00;;;;;;;14.92;100.00;102086.19;2097004;28;20071;-75
2022/12/19 01:52:27;;;;;;;16.35;9.30;;;;;;;14.96;100.00;102087.16;2101624;28;20113;-75
2022/12/19 01:53:52;;;;;;;16.05;9.30;;;;;;;15.01;100.00;102088.13;2087824;28;20068;-75
2022/12/19 01:55:15;;;;;;;19.60;11.05;;;;;;;15.09;100.00;102092.75;2091295;28;20125;-75
2022/12/19 01:56:42;;;;;;;19.35;11.02;;;;;;;15.18;100.00;102091.09;2089765;28;20552;-75
2022/12/19 01:58:03;;;;;;;21.40;11.45;;;;;;;15.24;100.00;102091.19;2096887;28;20040;-75
2022/12/19 01:59:31;;;;;;;16.48;10.13;;;;;;;15.28;100.00;102093.06;2087577;28;20049;-75
2022/12/19 02:00:54;;;;;;;20.60;11.23;;;;;;;15.33;100.00;102096.69;2085936;28;20133;-75
2022/12/19 02:02:23;;;;;;;17.85;11.32;;;;;;;15.38;100.00;102095.00;2092407;28;20056;-75
2022/12/19 02:03:47;;;;;;;20.00;10.98;;;;;;;15.42;100.00;102091.53;2095825;28;20044;-75
2022/12/19 02:05:10;;;;;;;20.33;9.38;;;;;;;15.46;100.00;102090.72;2085300;28;20648;-75
2022/12/19 02:06:35;;;;;;;17.98;9.65;;;;;;;15.47;100.00;102088.09;2088611;28;20048;-75
2022/12/19 02:07:56;;;;;;;17.58;8.52;;;;;;;15.50;100.00;102088.13;2094063;28;20107;-75
2022/12/19 02:09:19;;;;;;;19.27;9.10;;;;;;;15.52;100.00;102097.06;2086689;28;20409;-75
2022/12/19 02:10:43;;;;;;;20.48;8.73;;;;;;;15.51;100.00;102092.56;2093626;28;20048;-75
2022/12/19 02:12:04;;;;;;;16.58;9.35;;;;;;;15.48;100.00;102091.66;2090829;28;20040;-75
2022/12/19 02:13:29;;;;;;;20.88;9.65;;;;;;;15.43;100.00;102088.00;2093553;28;20677;-75
2022/12/19 02:14:53;;;;;;;22.83;9.63;;;;;;;15.36;100.00;102091.44;2089614;28;20052;-75
2022/12/19 02:16:26;;;;;;;36.03;21.50;;;;;;;15.32;100.00;102089.56;2102095;28;20051;-75
2022/12/19 02:18:10;;;;;;;25.08;11.93;;;;;;;15.33;100.00;102092.28;2097883;28;20066;-75
2022/12/19 02:20:14;;;;;;;13.90;7.72;;;;;;;15.41;100.00;102095.06;2088909;28;20859;-75
2022/12/19 02:21:49;;;;;;;20.67;7.78;;;;;;;15.49;100.00;102090.78;2091589;28;20288;-75
2022/12/19 02:23:33;;;;;;;14.50;6.72;;;;;;;15.54;100.00;102097.09;2101651;28;20051;-75
2022/12/19 02:25:05;;;;;;;15.20;6.82;;;;;;;15.59;100.00;102094.50;2093123;28;20400;-75
2022/12/19 02:26:53;;;;;;;17.95;6.55;;;;;;;15.64;100.00;102095.47;2094678;28;20163;-76
2022/12/19 02:28:39;;;;;;;13.25;5.55;;;;;;;15.69;100.00;102102.66;2092850;28;20093;-76
2022/12/19 02:30:11;;;;;;;16.58;6.18;;;;;;;15.77;100.00;102101.03;2100347;28;20127;-76
2022/12/19 02:31:44;;;;;;;15.75;6.00;;;;;;;15.82;100.00;102104.66;2103268;27;20582;-75
2022/12/19 02:33:15;;;;;;;16.27;7.22;;;;;;;15.86;100.00;102100.28;2094934;28;21337;-75
2022/12/19 02:34:45;;;;;;;16.83;5.68;;;;;;;15.86;100.00;102103.84;2093994;28;20427;-75
2022/12/19 02:36:15;;;;;;;16.98;6.15;;;;;;;15.86;100.00;102106.50;2091447;28;20064;-75
2022/12/19 02:37:44;;;;;;;15.35;7.43;;;;;;;15.87;100.00;102100.31;2095379;28;20394;-75
2022/12/19 02:39:10;;;;;;;12.18;6.43;;;;;;;15.86;100.00;102100.28;2092059;28;20045;-75
2022/12/19 02:40:38;;;;;;;15.00;6.10;;;;;;;15.86;100.00;102095.84;2096320;28;20488;-75
2022/12/19 02:42:04;;;;;;;14.07;5.07;;;;;;;15.87;100.00;102099.41;2094348;28;20064;-75
2022/12/19 02:43:31;;;;;;;15.32;5.50;;;;;;;15.89;100.00;102097.66;2094667;28;20567;-75
2022/12/19 02:44:54;;;;;;;11.77;5.07;;;;;;;15.90;100.00;102096.78;2090780;28;20098;-75
2022/12/19 02:46:18;;;;;;;13.20;5.43;;;;;;;15.92;100.00;102101.28;2092314;28;20566;-75
2022/12/19 02:47:44;;;;;;;10.30;5.00;;;;;;;15.92;100.00;102100.38;2100094;28;20054;-75
2022/12/19 02:49:07;;;;;;;12.65;4.40;;;;;;;15.92;100.00;102108.38;2101950;27;20044;-76
2022/12/19 02:50:35;;;;;;;15.10;5.43;;;;;;;15.94;100.00;102103.97;2089045;28;20090;-75
2022/12/19 02:51:58;;;;;;;11.43;5.13;;;;;;;15.94;100.00;102106.63;2097871;28;20500;-75
2022/12/19 02:53:21;;;;;;;14.73;5.50;;;;;;;15.92;100.00;102100.38;2085451;28;20080;-75
2022/12/19 02:54:43;;;;;;;10.93;5.32;;;;;;;15.86;100.00;102095.84;2091966;28;20029;-75
2022/12/19 02:56:22;;;;;;;15.63;4.85;;;;;;;15.79;100.00;102093.97;2084892;28;20067;-75
2022/12/19 02:58:02;;;;;;;12.00;4.93;;;;;;;15.71;100.00;102097.38;2099572;28;20517;-75
2022/12/19 02:59:39;;;;;;;10.23;5.00;;;;;;;15.66;100.00;102091.97;2086230;28;20136;-75
2022/12/19 03:01:13;;;;;;;13.07;5.03;;;;;;;15.66;100.00;102096.41;2087680;28;20037;-75
2022/12/19 03:02:40;;;;;;;12.05;5.45;;;;;;;15.66;100.00;102099.97;2098510;28;20063;-75
2022/12/19 03:04:16;;;;;;;11.82;4.35;;;;;;;15.66;100.00;102104.38;2098292;28;20109;-75
2022/12/19 03:05:45;;;;;;;13.13;5.20;;;;;;;15.62;100.00;102102.56;2095397;28;20090;-75
2022/12/19 03:07:18;;;;;;;12.25;5.50;;;;;;;15.54;100.00;102099.78;2091104;28;20832;-75
2022/12/19 03:08:52;;;;;;;12.38;5.28;;;;;;;15.48;100.00;102104.97;2086114;28;20069;-76
2022/12/19 03:10:23;;;;;;;16.17;4.80;;;;;;;15.44;100.00;102097.78;2091944;28;20043;-76
2022/12/19 03:11:48;;;;;;;12.75;5.53;;;;;;;15.40;100.00;102102.16;2089829;28;20061;-76
2022/12/19 03:13:17;;;;;;;16.50;5.25;;;;;;;15.37;100.00;102103.84;2091735;28;20040;-76
2022/12/19 03:14:45;;;;;;;19.58;4.97;;;;;;;15.35;100.00;102102.94;2089759;28;20155;-75
2022/12/19 03:16:10;;;;;;;15.82;4.75;;;;;;;15.34;100.00;102103.81;2099555;28;20134;-75
2022/12/19 03:17:35;;;;;;;9.43;4.55;;;;;;;15.34;100.00;102104.72;2093885;28;20504;-75
2022/12/19 03:18:58;;;;;;;17.33;5.20;;;;;;;15.33;100.00;102102.91;2095396;28;20531;-75
2022/12/19 03:20:28;;;;;;;15.88;5.32;;;;;;;15.33;100.00;102102.03;2091672;28;20099;-75
2022/12/19 03:21:51;;;;;;;14.00;5.43;;;;;;;15.36;100.00;102104.75;2090998;28;20079;-75
2022/12/19 03:23:13;;;;;;;14.63;5.55;;;;;;;15.39;100.00;102111.00;2099755;27;20400;-75
2022/12/19 03:24:35;;;;;;;;;;;;;;;15.39;100.00;102100.34;2091041;28;20036;-76
2022/12/19 03:26:00;;;;;;;17.05;6.25;;;;;;;15.48;100.00;102103.19;2098953;28;19924;-75
2022/12/19 03:27:28;;;;;;;18.42;5.47;;;;;;;15.56;100.00;102105.13;2094685;28;20151;-75
2022/12/19 03:28:53;;;;;;;16.70;5.82;;;;;;;15.63;100.00;102110.56;2094656;28;20052;-75
2022/12/19 03:30:16;;;;;;;14.60;5.03;;;;;;;15.69;100.00;102115.97;2103541;28;20044;-76
2022/12/19 03:31:39;;;;;;;18.98;6.53;;;;;;;15.78;100.00;102115.22;2104542;28;20048;-76
2022/12/19 03:33:03;;;;;;;15.80;5.53;;;;;;;15.84;100.00;102120.66;2096383;28;20032;-75
2022/12/19 03:34:28;;;;;;;13.50;5.60;;;;;;;15.89;100.00;102121.63;2095141;28;20044;-76
2022/12/19 03:35:55;;;;;;;14.98;5.82;;;;;;;15.94;100.00;102126.16;2108974;28;20056;-77
2022/12/19 03:37:18;;;;;;;17.45;5.45;;;;;;;15.98;100.00;102115.53;2099483;28;20607;-76
2022/12/19 03:38:46;;;;;;;18.63;6.63;;;;;;;16.02;100.00;102118.28;2108567;28;20128;-75
2022/12/19 03:40:11;;;;;;;21.38;6.95;;;;;;;16.06;100.00;102122.78;2109652;28;20051;-76
2022/12/19 03:43:18;;;;;;;13.20;6.20;;;;;;;16.12;100.00;102125.53;2098345;28;20044;-76
2022/12/19 03:44:41;;;;;;;16.85;6.22;;;;;;;16.13;100.00;102123.78;2103282;28;20060;-75
2022/12/19 03:46:12;;;;;;;15.05;6.00;;;;;;;16.14;100.00;102126.47;2110414;28;20055;-75
2022/12/19 03:47:38;;;;;;;15.95;6.05;;;;;;;16.18;100.00;102119.41;2097800;28;20047;-76
2022/12/19 03:49:00;;;;;;;17.95;6.47;;;;;;;16.22;100.00;102110.56;2102827;28;20530;-75
2022/12/19 03:50:24;;;;;;;13.73;6.07;;;;;;;16.26;100.00;102120.41;2094634;28;20044;-76
2022/12/19 03:51:54;;;;;;;19.50;4.70;;;;;;;16.29;100.00;102121.34;2103916;28;20055;-76
2022/12/19 03:53:30;;;;;;;15.38;6.30;;;;;;;16.30;100.00;102125.81;2094260;28;20032;-76
2022/12/19 03:55:00;;;;;;;12.02;5.45;;;;;;;16.31;100.00;102127.59;2109270;28;20043;-76
2022/12/19 03:56:33;;;;;;;14.32;5.47;;;;;;;16.33;100.00;102124.97;2103018;28;20058;-76
2022/12/19 03:58:00;;;;;;;13.30;5.40;;;;;;;16.35;100.00;102137.41;2100850;28;20051;-76
2022/12/19 03:59:30;;;;;;;10.40;5.07;;;;;;;16.36;100.00;102132.97;2092926;28;20041;-76
2022/12/19 04:00:53;;;;;;;12.40;4.72;;;;;;;16.32;100.00;102139.16;2102938;28;20574;-76
2022/12/19 04:02:21;;;;;;;12.38;4.43;;;;;;;16.27;100.00;102135.53;2096464;28;20052;-75
2022/12/19 04:03:43;;;;;;;15.88;4.65;;;;;;;16.21;100.00;102135.44;2099271;28;20055;-75
2022/12/19 04:05:13;;;;;;;12.93;4.60;;;;;;;16.17;100.00;102138.94;2094476;28;20040;-76
2022/12/19 04:06:34;;;;;;;13.55;4.82;;;;;;;16.15;100.00;102141.56;2100604;28;20058;-75
2022/12/19 04:08:01;;;;;;;;;;;;;;;16.14;100.00;102146.88;2100705;28;20423;-75
2022/12/19 04:09:25;;;;;;;14.07;4.20;;;;;;;16.18;100.00;102135.41;2097273;28;19959;-76
2022/12/19 04:10:50;;;;;;;14.00;4.63;;;;;;;16.23;100.00;102141.69;2103389;28;20044;-76
2022/12/19 04:12:20;;;;;;;15.02;4.82;;;;;;;16.28;100.00;102137.31;2100017;28;20118;-76
2022/12/19 04:13:48;;;;;;;16.80;4.35;;;;;;;16.31;100.00;102145.34;2101512;28;20600;-75
2022/12/19 04:15:17;;;;;;;16.58;4.90;;;;;;;16.33;100.00;102138.28;2101835;28;20082;-76
2022/12/19 04:16:47;;;;;;;13.98;4.28;;;;;;;16.39;100.00;102140.13;2086266;28;20048;-75
2022/12/19 04:18:14;;;;;;;11.25;4.57;;;;;;;16.42;100.00;102140.16;2090185;28;20059;-76
2022/12/19 04:19:42;;;;;;;13.52;4.43;;;;;;;16.45;100.00;102145.56;2090825;28;20040;-75
2022/12/19 04:21:13;;;;;;;14.75;4.40;;;;;;;16.45;100.00;102140.22;2096523;28;20036;-75
2022/12/19 04:22:40;;;;;;;11.80;4.53;;;;;;;16.44;100.00;102142.00;2094757;28;20044;-76
2022/12/19 04:24:11;;;;;;;11.20;3.85;;;;;;;16.43;100.00;102149.97;2102254;28;20579;-75
2022/12/19 04:25:36;;;;;;;13.77;4.50;;;;;;;16.34;100.00;102148.09;2095954;28;20028;-76
2022/12/19 04:27:01;;;;;;;12.75;4.20;;;;;;;16.26;100.00;102147.06;2090817;28;20139;-75
2022/12/19 04:28:30;;;;;;;11.23;4.60;;;;;;;16.19;100.00;102148.75;2095173;28;20044;-75
2022/12/19 04:29:54;;;;;;;13.10;7.00;;;;;;;16.10;100.00;102156.59;2100226;28;20384;-76
2022/12/19 04:31:18;;;;;;;16.70;6.47;;;;;;;16.00;100.00;102143.13;2091448;28;21913;-76
2022/12/19 04:32:44;;;;;;;22.50;14.18;;;;;;;15.92;100.00;102143.88;2093589;28;20037;-76
2022/12/19 04:34:07;;;;;;;23.10;12.75;;;;;;;15.84;100.00;102150.84;2092669;28;20075;-76
2022/12/19 04:35:28;;;;;;;26.13;17.25;;;;;;;15.79;100.00;102146.31;2099566;28;20419;-76
2022/12/19 04:36:52;;;;;;;18.27;11.35;;;;;;;15.75;100.00;102145.38;2085476;28;20493;-76
2022/12/19 04:38:13;;;;;;;19.63;11.35;;;;;;;15.71;100.00;102146.19;2097620;28;20052;-75
2022/12/19 04:39:37;;;;;;;24.05;13.48;;;;;;;15.69;100.00;102142.59;2100568;28;20068;-76
2022/12/19 04:40:58;;;;;;;15.52;6.03;;;;;;;15.69;100.00;102150.59;2099958;28;20445;-76
2022/12/19 04:42:22;;;;;;;16.05;6.22;;;;;;;15.76;100.00;102147.16;2089756;28;20158;-75
2022/12/19 04:43:44;;;;;;;15.60;7.75;;;;;;;15.84;100.00;102149.94;2092674;28;20456;-76
2022/12/19 04:45:06;;;;;;;16.50;7.78;;;;;;;15.90;100.00;102148.28;2100929;28;20138;-75
2022/12/19 04:46:29;;;;;;;16.00;6.80;;;;;;;15.97;100.00;102146.63;2085534;28;20067;-76
2022/12/19 04:47:52;;;;;;;12.30;5.82;;;;;;;16.02;100.00;102144.00;2099816;28;20047;-76
2022/12/19 04:49:13;;;;;;;13.25;5.65;;;;;;;16.08;100.00;102150.31;2103412;28;20058;-76
2022/12/19 04:50:36;;;;;;;13.50;6.30;;;;;;;16.12;100.00;102140.63;2093612;28;20036;-75
2022/12/19 04:51:58;;;;;;;14.18;6.38;;;;;;;16.17;100.00;102144.25;2089524;28;20444;-75
2022/12/19 04:53:19;;;;;;;16.10;6.55;;;;;;;16.23;100.00;102152.34;2088638;28;20053;-75
2022/12/19 04:54:43;;;;;;;12.23;6.25;;;;;;;16.27;100.00;102143.53;2083733;28;20051;-75
2022/12/19 04:56:06;;;;;;;14.93;6.45;;;;;;;16.29;100.00;102150.66;2091283;28;20067;-75
2022/12/19 04:57:29;;;;;;;10.68;5.97;;;;;;;16.32;100.00;102141.81;2092483;28;20514;-75
2022/12/19 04:58:55;;;;;;;18.30;5.55;;;;;;;16.35;100.00;102140.09;2095754;28;20067;-74
2022/12/19 05:00:18;;;;;;;20.20;6.63;;;;;;;16.37;100.00;102149.88;2089753;28;20459;-76
2022/12/19 05:01:39;;;;;;;15.15;8.88;;;;;;;16.38;100.00;102149.00;2091510;28;20105;-75
2022/12/19 05:03:02;;;;;;;15.88;8.27;;;;;;;16.39;100.00;102151.69;2096004;28;20077;-75
2022/12/19 05:04:24;;;;;;;18.27;8.50;;;;;;;16.41;100.00;102149.94;2101308;28;20442;-75
2022/12/19 05:05:47;;;;;;;14.68;8.93;;;;;;;16.43;100.00;102147.28;2103317;28;20036;-75
2022/12/19 05:07:08;;;;;;;22.30;10.68;;;;;;;16.43;100.00;102152.63;2103145;28;20051;-76
2022/12/19 05:08:31;;;;;;;22.15;9.68;;;;;;;16.44;100.00;102149.09;2096386;28;20040;-76
2022/12/19 05:09:55;;;;;;;20.17;12.00;;;;;;;16.48;100.00;102146.47;2099310;28;20423;-76
2022/12/19 05:11:20;;;;;;;18.05;11.15;;;;;;;16.48;100.00;102142.91;2091067;28;20137;-76
2022/12/19 05:12:41;;;;;;;19.15;10.23;;;;;;;16.49;100.00;102144.72;2101502;28;20424;-75
2022/12/19 05:14:04;;;;;;;22.38;10.55;;;;;;;16.50;100.00;102149.16;2102197;28;20077;-76
2022/12/19 05:15:25;;;;;;;19.40;9.50;;;;;;;16.52;100.00;102145.66;2103940;28;20055;-76
2022/12/19 05:16:48;;;;;;;23.33;9.75;;;;;;;16.54;100.00;102151.03;2102510;28;20032;-76
2022/12/19 05:18:10;;;;;;;18.70;7.78;;;;;;;16.55;100.00;102147.44;2106574;28;20035;-76
2022/12/19 05:19:31;;;;;;;18.80;7.63;;;;;;;16.57;100.00;102146.63;2103445;28;20107;-76
2022/12/19 05:20:53;;;;;;;16.90;7.22;;;;;;;16.58;100.00;102147.50;2097573;28;20070;-75
2022/12/19 05:22:16;;;;;;;16.98;6.60;;;;;;;16.59;100.00;102150.19;2097299;28;20104;-75
2022/12/19 05:23:37;;;;;;;14.15;7.00;;;;;;;16.62;100.00;102144.03;2099357;28;20161;-76
2022/12/19 05:25:01;;;;;;;13.90;7.15;;;;;;;16.62;100.00;102152.94;2103343;28;20078;-76
2022/12/19 05:26:23;;;;;;;23.55;10.95;;;;;;;16.64;100.00;102150.28;2093096;28;20075;-75
2022/12/19 05:27:45;;;;;;;28.95;15.65;;;;;;;16.65;100.00;102150.31;2088646;28;20127;-76
2022/12/19 05:29:08;;;;;;;22.40;13.68;;;;;;;16.65;100.00;102152.09;2092269;28;20051;-75
2022/12/19 05:30:29;;;;;;;20.83;12.63;;;;;;;16.66;100.00;102157.44;2102086;28;20075;-75
2022/12/19 05:31:52;;;;;;;22.08;11.02;;;;;;;16.67;100.00;102153.00;2093874;28;20408;-76
2022/12/19 05:33:13;;;;;;;16.75;9.25;;;;;;;16.66;100.00;102153.88;2100122;28;20126;-75
2022/12/19 05:34:36;;;;;;;27.65;11.20;;;;;;;16.66;100.00;102157.44;2102883;28;20043;-75
2022/12/19 05:35:58;;;;;;;20.48;9.82;;;;;;;16.66;100.00;102157.44;2111587;28;20052;-76
2022/12/19 05:37:21;;;;;;;19.63;9.68;;;;;;;16.67;100.00;102153.88;2105684;28;20044;-76
2022/12/19 05:38:42;;;;;;;21.00;7.88;;;;;;;16.67;100.00;102153.88;2103030;28;20043;-75
2022/12/19 05:40:07;;;;;;;19.35;8.30;;;;;;;16.70;100.00;102153.03;2111434;28;20036;-75
2022/12/19 05:41:30;;;;;;;21.25;8.43;;;;;;;16.71;100.00;102150.41;2105663;28;20051;-76
2022/12/19 05:42:52;;;;;;;23.33;7.25;;;;;;;16.75;100.00;102161.97;2097412;28;20047;-75
2022/12/19 05:44:15;;;;;;;20.50;7.10;;;;;;;16.78;100.00;102162.03;2086133;28;20041;-76
2022/12/19 05:45:39;;;;;;;13.85;5.68;;;;;;;16.82;100.00;102168.28;2091446;28;20510;-76
2022/12/19 05:47:02;;;;;;;13.65;5.80;;;;;;;16.83;100.00;102162.97;2103068;28;20163;-75
2022/12/19 05:48:23;;;;;;;18.90;6.53;;;;;;;16.86;100.00;102168.38;2097635;28;20040;-75
2022/12/19 05:49:46;;;;;;;18.80;6.30;;;;;;;16.88;100.00;102171.03;2102987;28;20051;-76
2022/12/19 05:51:08;;;;;;;14.77;5.05;;;;;;;16.90;100.00;102174.63;2096832;28;20408;-76
2022/12/19 05:52:30;;;;;;;18.67;5.50;;;;;;;16.91;100.00;102169.31;2094807;28;20052;-77
2022/12/19 05:53:52;;;;;;;16.25;4.43;;;;;;;16.93;100.00;102166.66;2102919;28;20543;-76
2022/12/19 05:55:17;;;;;;;19.67;5.57;;;;;;;16.96;100.00;102172.03;2088880;28;20057;-76
2022/12/19 05:56:39;;;;;;;13.15;4.55;;;;;;;16.99;100.00;102166.75;2100168;28;20078;-76
2022/12/19 05:58:00;;;;;;;16.63;6.03;;;;;;;17.02;100.00;102178.34;2097500;28;20128;-76
2022/12/19 05:59:23;;;;;;;18.90;5.30;;;;;;;17.04;100.00;102170.34;2094538;28;20136;-75
2022/12/19 06:00:45;;;;;;;19.52;5.38;;;;;;;17.07;100.00;102176.59;2086586;28;20072;-76
2022/12/19 06:02:07;;;;;;;19.92;5.95;;;;;;;17.08;100.00;102174.84;2089883;28;20397;-76
2022/12/19 06:03:29;;;;;;;14.77;5.22;;;;;;;17.08;100.00;102165.06;2100181;28;20047;-75
2022/12/19 06:04:51;;;;;;;19.20;5.93;;;;;;;17.10;100.00;102168.66;2102446;28;20055;-76
2022/12/19 06:06:15;;;;;;;18.88;7.28;;;;;;;17.12;100.00;102169.56;2102784;27;20062;-76
2022/12/19 06:07:37;;;;;;;19.85;6.28;;;;;;;17.13;100.00;102168.66;2093213;28;20047;-76
2022/12/19 06:09:01;;;;;;;19.23;6.07;;;;;;;17.16;100.00;102169.59;2090012;28;20048;-76
2022/12/19 06:10:24;;;;;;;20.23;6.30;;;;;;;17.17;100.00;102172.28;2096667;28;20044;-76
2022/12/19 06:11:46;;;;;;;19.63;6.22;;;;;;;17.19;100.00;102174.97;2101637;27;20628;-75
2022/12/19 06:13:08;;;;;;;26.02;6.35;;;;;;;17.20;100.00;102174.09;2094756;28;20052;-76
2022/12/19 06:14:31;;;;;;;26.00;6.93;;;;;;;17.23;100.00;102174.13;2094690;28;20079;-76
2022/12/19 06:15:57;;;;;;;19.25;5.80;;;;;;;17.23;100.00;102172.34;2093265;28;20044;-76
2022/12/19 06:17:20;;;;;;;18.92;5.70;;;;;;;17.26;100.00;102164.38;2085896;28;20052;-76
2022/12/19 06:18:44;;;;;;;16.00;5.57;;;;;;;17.28;100.00;102170.63;2093180;28;20048;-75
2022/12/19 06:20:08;;;;;;;19.23;6.68;;;;;;;17.30;100.00;102179.53;2091854;28;20045;-76
2022/12/19 06:21:30;;;;;;;19.45;5.35;;;;;;;17.32;100.00;102180.47;2093366;28;20055;-76
2022/12/19 06:22:51;;;;;;;18.13;5.43;;;;;;;17.35;100.00;102174.25;2093190;28;20423;-75
2022/12/19 06:24:14;;;;;;;16.52;5.38;;;;;;;17.37;100.00;102169.81;2092369;28;20408;-76
2022/12/19 06:25:36;;;;;;;16.45;5.90;;;;;;;17.39;100.00;102163.59;2094677;28;20558;-75
2022/12/19 06:26:59;;;;;;;16.75;5.07;;;;;;;17.41;100.00;102175.22;2100942;28;20036;-76
2022/12/19 06:28:20;;;;;;;19.20;5.22;;;;;;;17.43;100.00;102176.13;2095411;28;20433;-76
2022/12/19 06:29:42;;;;;;;18.50;4.45;;;;;;;17.46;100.00;102173.47;2092433;28;20040;-76